sensor_id;sensor_type;location;lat;lon;timestamp;pressure;altitude;pressure_sealevel;temperature;humidity
84712;BME280;74937;44.534;18.684;2024-03-02T00:00:04;98103.28;;;10.95;58.42
84712;BME280;74937;44.534;18.684;2024-03-02T00:02:41;98112.63;;;10.90;58.26
84712;BME280;74937;44.534;18.684;2024-03-02T00:05:07;98117.31;;;10.86;58.34
84712;BME280;74937;44.534;18.684;2024-03-02T00:07:33;98114.84;;;10.84;58.48
84712;BME280;74937;44.534;18.684;2024-03-02T00:10:00;98120.91;;;10.95;58.45
84712;BME280;74937;44.534;18.684;2024-03-02T00:12:26;98118.44;;;10.83;58.79
84712;BME280;74937;44.534;18.684;2024-03-02T00:14:51;98126.06;;;10.77;58.82
84712;BME280;74937;44.534;18.684;2024-03-02T00:17:25;98123.28;;;10.78;58.52
84712;BME280;74937;44.534;18.684;2024-03-02T00:19:53;98125.94;;;10.78;58.63
84712;BME280;74937;44.534;18.684;2024-03-02T00:22:19;98123.44;;;10.77;58.91
84712;BME280;74937;44.534;18.684;2024-03-02T00:24:44;98123.53;;;10.75;58.79
84712;BME280;74937;44.534;18.684;2024-03-02T00:27:13;98129.53;;;10.77;58.92
84712;BME280;74937;44.534;18.684;2024-03-02T00:29:40;98130.22;;;10.79;58.67
84712;BME280;74937;44.534;18.684;2024-03-02T00:32:12;98133.25;;;10.65;58.69
84712;BME280;74937;44.534;18.684;2024-03-02T00:34:39;98130.06;;;10.62;58.79
84712;BME280;74937;44.534;18.684;2024-03-02T00:37:05;98133.22;;;10.55;58.98
84712;BME280;74937;44.534;18.684;2024-03-02T00:39:30;98136.00;;;10.54;59.37
84712;BME280;74937;44.534;18.684;2024-03-02T00:41:56;98139.63;;;10.43;59.84
84712;BME280;74937;44.534;18.684;2024-03-02T00:44:25;98138.66;;;10.44;59.58
84712;BME280;74937;44.534;18.684;2024-03-02T00:46:52;98134.06;;;10.46;59.66
84712;BME280;74937;44.534;18.684;2024-03-02T00:49:23;98144.31;;;10.49;59.43
84712;BME280;74937;44.534;18.684;2024-03-02T00:51:52;98140.31;;;10.45;59.18
84712;BME280;74937;44.534;18.684;2024-03-02T00:54:20;98139.47;;;10.45;59.56
84712;BME280;74937;44.534;18.684;2024-03-02T00:56:47;98126.13;;;10.37;59.85
84712;BME280;74937;44.534;18.684;2024-03-02T00:59:13;98133.38;;;10.44;59.58
84712;BME280;74937;44.534;18.684;2024-03-02T01:01:39;98135.97;;;10.35;59.84
84712;BME280;74937;44.534;18.684;2024-03-02T01:04:05;98131.53;;;10.25;60.31
84712;BME280;74937;44.534;18.684;2024-03-02T01:06:30;98125.53;;;10.23;60.57
84712;BME280;74937;44.534;18.684;2024-03-02T01:08:56;98124.47;;;10.26;60.67
84712;BME280;74937;44.534;18.684;2024-03-02T01:11:22;98133.47;;;10.33;60.24
84712;BME280;74937;44.534;18.684;2024-03-02T01:13:48;98136.94;;;10.33;60.42
84712;BME280;74937;44.534;18.684;2024-03-02T01:16:14;98133.63;;;10.41;59.87
84712;BME280;74937;44.534;18.684;2024-03-02T01:18:41;98135.28;;;10.42;60.20
84712;BME280;74937;44.534;18.684;2024-03-02T01:21:07;98134.22;;;10.45;60.10
84712;BME280;74937;44.534;18.684;2024-03-02T01:23:33;98139.19;;;10.48;59.94
84712;BME280;74937;44.534;18.684;2024-03-02T01:25:59;98128.09;;;10.44;60.07
84712;BME280;74937;44.534;18.684;2024-03-02T01:28:24;98125.47;;;10.44;60.35
84712;BME280;74937;44.534;18.684;2024-03-02T01:30:50;98131.28;;;10.48;60.15
84712;BME280;74937;44.534;18.684;2024-03-02T01:33:19;98135.72;;;10.47;59.94
84712;BME280;74937;44.534;18.684;2024-03-02T01:35:45;98125.59;;;10.43;59.96
84712;BME280;74937;44.534;18.684;2024-03-02T01:38:11;98126.69;;;10.40;59.97
84712;BME280;74937;44.534;18.684;2024-03-02T01:40:37;98119.19;;;10.36;60.25
84712;BME280;74937;44.534;18.684;2024-03-02T01:43:07;98126.13;;;10.37;60.12
84712;BME280;74937;44.534;18.684;2024-03-02T01:45:34;98116.44;;;10.37;60.20
84712;BME280;74937;44.534;18.684;2024-03-02T01:48:00;98112.81;;;10.28;60.52
84712;BME280;74937;44.534;18.684;2024-03-02T01:50:27;98112.13;;;10.26;60.57
84712;BME280;74937;44.534;18.684;2024-03-02T01:52:57;98116.91;;;10.21;60.80
84712;BME280;74937;44.534;18.684;2024-03-02T01:55:23;98111.09;;;10.18;60.59
84712;BME280;74937;44.534;18.684;2024-03-02T01:57:49;98113.47;;;10.21;60.81
84712;BME280;74937;44.534;18.684;2024-03-02T02:00:20;98108.47;;;10.18;60.63
84712;BME280;74937;44.534;18.684;2024-03-02T02:02:46;98110.53;;;10.14;60.92
84712;BME280;74937;44.534;18.684;2024-03-02T02:05:12;98110.53;;;10.14;60.99
84712;BME280;74937;44.534;18.684;2024-03-02T02:07:41;98108.03;;;10.13;60.75
84712;BME280;74937;44.534;18.684;2024-03-02T02:10:07;98109.97;;;10.11;61.11
84712;BME280;74937;44.534;18.684;2024-03-02T02:12:33;98106.28;;;10.23;60.91
84712;BME280;74937;44.534;18.684;2024-03-02T02:14:59;98102.78;;;10.13;61.13
84712;BME280;74937;44.534;18.684;2024-03-02T02:17:24;98115.47;;;9.98;61.92
84712;BME280;74937;44.534;18.684;2024-03-02T02:19:50;98114.66;;;10.07;61.28
84712;BME280;74937;44.534;18.684;2024-03-02T02:22:16;98116.16;;;10.00;61.63
84712;BME280;74937;44.534;18.684;2024-03-02T02:24:41;98115.19;;;10.01;61.05
84712;BME280;74937;44.534;18.684;2024-03-02T02:27:10;98107.59;;;9.98;61.00
84712;BME280;74937;44.534;18.684;2024-03-02T02:29:36;98106.72;;;9.97;60.94
84712;BME280;74937;44.534;18.684;2024-03-02T02:32:02;98110.06;;;9.99;61.02
84712;BME280;74937;44.534;18.684;2024-03-02T02:34:28;98114.38;;;10.00;60.89
84712;BME280;74937;44.534;18.684;2024-03-02T02:36:53;98116.31;;;9.98;61.03
84712;BME280;74937;44.534;18.684;2024-03-02T02:39:21;98115.19;;;10.01;61.20
84712;BME280;74937;44.534;18.684;2024-03-02T02:41:49;98111.81;;;9.89;61.49
84712;BME280;74937;44.534;18.684;2024-03-02T02:44:15;98111.69;;;9.91;61.43
84712;BME280;74937;44.534;18.684;2024-03-02T02:46:41;98111.69;;;9.91;61.43
84712;BME280;74937;44.534;18.684;2024-03-02T02:49:07;98115.47;;;9.98;61.35
84712;BME280;74937;44.534;18.684;2024-03-02T02:51:32;98116.94;;;9.91;61.22
84712;BME280;74937;44.534;18.684;2024-03-02T02:53:58;98117.22;;;9.78;61.87
84712;BME280;74937;44.534;18.684;2024-03-02T02:56:24;98117.59;;;9.73;62.23
84712;BME280;74937;44.534;18.684;2024-03-02T02:58:49;98120.16;;;9.64;62.46
84712;BME280;74937;44.534;18.684;2024-03-02T03:01:15;98126.31;;;9.74;62.33
84712;BME280;74937;44.534;18.684;2024-03-02T03:03:44;98125.78;;;9.80;61.69
84712;BME280;74937;44.534;18.684;2024-03-02T03:06:10;98117.97;;;9.69;61.90
84712;BME280;74937;44.534;18.684;2024-03-02T03:08:36;98115.03;;;9.62;62.26
84712;BME280;74937;44.534;18.684;2024-03-02T03:11:02;98116.19;;;9.69;61.88
84712;BME280;74937;44.534;18.684;2024-03-02T03:13:28;98117.75;;;9.82;61.64
84712;BME280;74937;44.534;18.684;2024-03-02T03:15:53;98117.59;;;9.73;62.08
84712;BME280;74937;44.534;18.684;2024-03-02T03:18:19;98116.88;;;9.71;61.96
84712;BME280;74937;44.534;18.684;2024-03-02T03:20:45;98117.72;;;9.72;62.03
84712;BME280;74937;44.534;18.684;2024-03-02T03:23:11;98119.25;;;9.74;62.05
84712;BME280;74937;44.534;18.684;2024-03-02T03:25:58;98127.81;;;9.67;62.17
84712;BME280;74937;44.534;18.684;2024-03-02T03:28:24;98124.06;;;9.69;62.21
84712;BME280;74937;44.534;18.684;2024-03-02T03:30:50;98127.81;;;9.67;62.00
84712;BME280;74937;44.534;18.684;2024-03-02T03:33:15;98130.56;;;9.65;62.15
84712;BME280;74937;44.534;18.684;2024-03-02T03:35:41;98135.38;;;9.60;62.50
84712;BME280;74937;44.534;18.684;2024-03-02T03:38:06;98130.50;;;9.56;62.59
84712;BME280;74937;44.534;18.684;2024-03-02T03:40:32;98121.66;;;9.57;62.61
84712;BME280;74937;44.534;18.684;2024-03-02T03:42:58;98128.25;;;9.51;62.73
84712;BME280;74937;44.534;18.684;2024-03-02T03:45:25;98136.16;;;9.51;62.58
84712;BME280;74937;44.534;18.684;2024-03-02T03:47:53;98139.13;;;9.37;63.42
84712;BME280;74937;44.534;18.684;2024-03-02T03:50:18;98137.72;;;9.33;63.44
84712;BME280;74937;44.534;18.684;2024-03-02T03:52:45;98135.41;;;9.39;63.37
84712;BME280;74937;44.534;18.684;2024-03-02T03:55:10;98138.22;;;9.47;62.68
84712;BME280;74937;44.534;18.684;2024-03-02T03:57:36;98138.78;;;9.51;62.72
84712;BME280;74937;44.534;18.684;2024-03-02T04:00:03;98135.22;;;9.52;62.63
84712;BME280;74937;44.534;18.684;2024-03-02T04:02:37;98138.53;;;9.54;62.52
84712;BME280;74937;44.534;18.684;2024-03-02T04:05:03;98139.06;;;9.48;62.51
84712;BME280;74937;44.534;18.684;2024-03-02T04:07:35;98144.81;;;9.42;62.75
84712;BME280;74937;44.534;18.684;2024-03-02T04:10:07;98144.25;;;9.17;63.90
84712;BME280;74937;44.534;18.684;2024-03-02T04:12:34;98144.97;;;9.19;63.50
84712;BME280;74937;44.534;18.684;2024-03-02T04:15:01;98144.00;;;9.20;63.76
84712;BME280;74937;44.534;18.684;2024-03-02T04:17:27;98151.75;;;9.22;63.44
84712;BME280;74937;44.534;18.684;2024-03-02T04:19:52;98151.63;;;9.23;63.46
84712;BME280;74937;44.534;18.684;2024-03-02T04:22:18;98151.63;;;9.23;63.74
84712;BME280;74937;44.534;18.684;2024-03-02T04:24:44;98154.72;;;9.29;63.41
84712;BME280;74937;44.534;18.684;2024-03-02T04:27:09;98162.41;;;9.20;63.75
84712;BME280;74937;44.534;18.684;2024-03-02T04:29:35;98160.84;;;9.18;64.16
84712;BME280;74937;44.534;18.684;2024-03-02T04:32:00;98158.94;;;9.20;64.18
84712;BME280;74937;44.534;18.684;2024-03-02T04:34:26;98158.13;;;9.19;63.88
84712;BME280;74937;44.534;18.684;2024-03-02T04:36:52;98160.75;;;9.19;63.81
84712;BME280;74937;44.534;18.684;2024-03-02T04:39:17;98165.72;;;9.22;63.44
84712;BME280;74937;44.534;18.684;2024-03-02T04:41:43;98168.63;;;9.19;63.41
84712;BME280;74937;44.534;18.684;2024-03-02T04:44:08;98178.19;;;9.20;63.42
84712;BME280;74937;44.534;18.684;2024-03-02T04:46:34;98179.16;;;9.19;63.63
84712;BME280;74937;44.534;18.684;2024-03-02T04:49:01;98189.69;;;9.08;64.13
84712;BME280;74937;44.534;18.684;2024-03-02T04:51:26;98184.94;;;8.70;65.58
84712;BME280;74937;44.534;18.684;2024-03-02T04:53:52;98189.34;;;8.69;66.13
84712;BME280;74937;44.534;18.684;2024-03-02T04:56:18;98200.56;;;8.72;65.83
84712;BME280;74937;44.534;18.684;2024-03-02T04:59:02;98198.41;;;8.77;65.63
84712;BME280;74937;44.534;18.684;2024-03-02T05:01:27;98201.09;;;8.86;65.44
84712;BME280;74937;44.534;18.684;2024-03-02T05:03:55;98207.44;;;8.95;65.53
84712;BME280;74937;44.534;18.684;2024-03-02T05:06:21;98201.69;;;9.01;64.94
84712;BME280;74937;44.534;18.684;2024-03-02T05:08:48;98206.09;;;9.01;64.29
84712;BME280;74937;44.534;18.684;2024-03-02T05:11:14;98208.97;;;8.97;64.68
84712;BME280;74937;44.534;18.684;2024-03-02T05:13:58;98209.28;;;9.04;64.17
84712;BME280;74937;44.534;18.684;2024-03-02T05:16:24;98212.88;;;9.03;64.72
84712;BME280;74937;44.534;18.684;2024-03-02T05:18:49;98210.53;;;9.00;64.65
84712;BME280;74937;44.534;18.684;2024-03-02T05:21:15;98226.03;;;9.03;64.86
84712;BME280;74937;44.534;18.684;2024-03-02T05:23:41;98214.69;;;9.03;64.35
84712;BME280;74937;44.534;18.684;2024-03-02T05:26:06;98213.50;;;8.95;64.62
84712;BME280;74937;44.534;18.684;2024-03-02T05:28:32;98220.78;;;8.92;64.78
84712;BME280;74937;44.534;18.684;2024-03-02T05:30:58;98214.47;;;8.94;64.46
84712;BME280;74937;44.534;18.684;2024-03-02T05:33:23;98222.22;;;8.96;64.80
84712;BME280;74937;44.534;18.684;2024-03-02T05:35:49;98227.97;;;9.01;64.38
84712;BME280;74937;44.534;18.684;2024-03-02T05:38:17;98227.00;;;9.02;63.98
84712;BME280;74937;44.534;18.684;2024-03-02T05:40:43;98227.22;;;8.99;64.36
84712;BME280;74937;44.534;18.684;2024-03-02T05:43:08;98234.78;;;8.92;64.91
84712;BME280;74937;44.534;18.684;2024-03-02T05:45:34;98229.66;;;8.91;64.43
84712;BME280;74937;44.534;18.684;2024-03-02T05:48:00;98234.69;;;7.93;68.14
84712;BME280;74937;44.534;18.684;2024-03-02T05:50:27;98235.56;;;8.16;68.23
84712;BME280;74937;44.534;18.684;2024-03-02T05:52:52;98238.91;;;8.40;67.15
84712;BME280;74937;44.534;18.684;2024-03-02T05:55:18;98247.88;;;8.49;66.77
84712;BME280;74937;44.534;18.684;2024-03-02T05:57:43;98242.50;;;8.51;66.64
84712;BME280;74937;44.534;18.684;2024-03-02T06:00:09;98244.03;;;8.64;66.36
84712;BME280;74937;44.534;18.684;2024-03-02T06:02:39;98246.38;;;8.79;65.47
84712;BME280;74937;44.534;18.684;2024-03-02T06:05:06;98248.03;;;8.91;64.99
84712;BME280;74937;44.534;18.684;2024-03-02T06:07:32;98249.94;;;9.00;64.43
84712;BME280;74937;44.534;18.684;2024-03-02T06:09:58;98247.53;;;9.08;64.29
84712;BME280;74937;44.534;18.684;2024-03-02T06:12:24;98253.19;;;9.24;63.64
84712;BME280;74937;44.534;18.684;2024-03-02T06:14:49;98257.56;;;9.35;63.23
84712;BME280;74937;44.534;18.684;2024-03-02T06:17:15;98255.34;;;9.51;62.65
84712;BME280;74937;44.534;18.684;2024-03-02T06:19:41;98262.63;;;9.59;62.51
84712;BME280;74937;44.534;18.684;2024-03-02T06:22:06;98258.94;;;9.71;61.96
84712;BME280;74937;44.534;18.684;2024-03-02T06:24:36;98260.19;;;9.88;61.42
84712;BME280;74937;44.534;18.684;2024-03-02T06:27:02;98265.38;;;9.99;61.13
84712;BME280;74937;44.534;18.684;2024-03-02T06:29:27;98270.44;;;10.12;60.50
84712;BME280;74937;44.534;18.684;2024-03-02T06:31:53;98265.31;;;10.31;59.76
84712;BME280;74937;44.534;18.684;2024-03-02T06:34:18;98267.19;;;10.50;59.03
84712;BME280;74937;44.534;18.684;2024-03-02T06:36:44;98264.28;;;10.53;59.01
84712;BME280;74937;44.534;18.684;2024-03-02T06:39:11;98269.31;;;10.66;59.06
84712;BME280;74937;44.534;18.684;2024-03-02T06:41:37;98273.22;;;10.81;58.57
84712;BME280;74937;44.534;18.684;2024-03-02T06:44:03;98271.75;;;11.08;57.62
84712;BME280;74937;44.534;18.684;2024-03-02T06:46:29;98273.59;;;11.27;57.29
84712;BME280;74937;44.534;18.684;2024-03-02T06:48:55;98264.72;;;11.37;56.75
84712;BME280;74937;44.534;18.684;2024-03-02T06:51:21;98276.94;;;11.58;56.03
84712;BME280;74937;44.534;18.684;2024-03-02T06:53:47;98277.03;;;11.08;57.04
84712;BME280;74937;44.534;18.684;2024-03-02T06:56:12;98278.06;;;11.36;56.42
84712;BME280;74937;44.534;18.684;2024-03-02T06:58:38;98281.66;;;11.64;55.84
84712;BME280;74937;44.534;18.684;2024-03-02T07:01:04;98281.53;;;11.94;54.79
84712;BME280;74937;44.534;18.684;2024-03-02T07:03:30;98287.47;;;12.16;53.93
84712;BME280;74937;44.534;18.684;2024-03-02T07:05:55;98288.38;;;12.34;53.53
84712;BME280;74937;44.534;18.684;2024-03-02T07:08:22;98283.06;;;12.44;53.25
84712;BME280;74937;44.534;18.684;2024-03-02T07:10:48;98295.16;;;12.46;52.97
84712;BME280;74937;44.534;18.684;2024-03-02T07:13:13;98295.94;;;12.57;53.26
84712;BME280;74937;44.534;18.684;2024-03-02T07:15:39;98282.31;;;12.89;52.42
84712;BME280;74937;44.534;18.684;2024-03-02T07:18:10;98295.56;;;13.34;51.06
84712;BME280;74937;44.534;18.684;2024-03-02T07:20:36;98288.00;;;13.75;50.01
84712;BME280;74937;44.534;18.684;2024-03-02T07:23:04;98289.06;;;14.34;48.58
84712;BME280;74937;44.534;18.684;2024-03-02T07:25:31;98284.22;;;14.81;47.35
84712;BME280;74937;44.534;18.684;2024-03-02T07:27:56;98281.88;;;15.20;46.36
84712;BME280;74937;44.534;18.684;2024-03-02T07:30:22;98283.91;;;15.51;45.56
84712;BME280;74937;44.534;18.684;2024-03-02T07:32:50;98285.31;;;15.80;44.75
84712;BME280;74937;44.534;18.684;2024-03-02T07:35:15;98282.94;;;16.25;43.72
84712;BME280;74937;44.534;18.684;2024-03-02T07:37:42;98285.03;;;16.63;42.86
84712;BME280;74937;44.534;18.684;2024-03-02T07:40:09;98276.41;;;17.00;42.15
84712;BME280;74937;44.534;18.684;2024-03-02T07:42:38;98280.41;;;17.27;41.45
84712;BME280;74937;44.534;18.684;2024-03-02T07:45:04;98286.16;;;17.39;41.42
84712;BME280;74937;44.534;18.684;2024-03-02T07:47:30;98292.44;;;17.46;40.92
84712;BME280;74937;44.534;18.684;2024-03-02T07:49:56;98293.41;;;17.53;40.52
84712;BME280;74937;44.534;18.684;2024-03-02T07:52:21;98291.94;;;17.50;40.61
84712;BME280;74937;44.534;18.684;2024-03-02T07:54:47;98298.66;;;17.07;41.16
84712;BME280;74937;44.534;18.684;2024-03-02T07:57:13;98292.72;;;16.97;42.36
84712;BME280;74937;44.534;18.684;2024-03-02T07:59:38;98299.06;;;16.88;42.55
84712;BME280;74937;44.534;18.684;2024-03-02T08:02:04;98298.97;;;16.65;42.98
84712;BME280;74937;44.534;18.684;2024-03-02T08:04:30;98304.59;;;16.78;42.46
84712;BME280;74937;44.534;18.684;2024-03-02T08:06:55;98301.44;;;16.74;42.63
84712;BME280;74937;44.534;18.684;2024-03-02T08:09:21;98298.66;;;17.07;43.31
84712;BME280;74937;44.534;18.684;2024-03-02T08:11:47;98301.75;;;17.50;42.08
84712;BME280;74937;44.534;18.684;2024-03-02T08:14:12;98303.28;;;17.75;40.81
84712;BME280;74937;44.534;18.684;2024-03-02T08:16:38;98306.84;;;18.05;40.83
84712;BME280;74937;44.534;18.684;2024-03-02T08:19:04;98300.34;;;18.46;39.90
84712;BME280;74937;44.534;18.684;2024-03-02T08:21:29;98301.91;;;18.84;38.93
84712;BME280;74937;44.534;18.684;2024-03-02T08:24:01;98298.75;;;19.10;37.77
84712;BME280;74937;44.534;18.684;2024-03-02T08:26:27;98303.22;;;19.39;37.35
84712;BME280;74937;44.534;18.684;2024-03-02T08:28:55;98301.06;;;19.64;36.13
84712;BME280;74937;44.534;18.684;2024-03-02T08:31:21;98307.03;;;19.88;35.41
84712;BME280;74937;44.534;18.684;2024-03-02T08:33:46;98303.06;;;20.05;35.70
84712;BME280;74937;44.534;18.684;2024-03-02T08:36:12;98302.88;;;20.06;35.21
84712;BME280;74937;44.534;18.684;2024-03-02T08:38:38;98295.41;;;20.23;35.11
84712;BME280;74937;44.534;18.684;2024-03-02T08:41:04;98303.59;;;20.15;35.30
84712;BME280;74937;44.534;18.684;2024-03-02T08:43:30;98295.84;;;20.27;35.35
84712;BME280;74937;44.534;18.684;2024-03-02T08:45:56;98294.69;;;20.64;34.88
84712;BME280;74937;44.534;18.684;2024-03-02T08:48:21;98287.47;;;20.65;34.20
84712;BME280;74937;44.534;18.684;2024-03-02T08:50:47;98292.56;;;20.88;34.10
84712;BME280;74937;44.534;18.684;2024-03-02T08:53:13;98301.19;;;20.83;34.30
84712;BME280;74937;44.534;18.684;2024-03-02T08:55:38;98291.91;;;20.85;34.45
84712;BME280;74937;44.534;18.684;2024-03-02T08:58:04;98296.75;;;21.03;34.42
84712;BME280;74937;44.534;18.684;2024-03-02T09:00:30;98297.03;;;21.22;34.19
84712;BME280;74937;44.534;18.684;2024-03-02T09:02:55;98297.69;;;21.30;34.45
84712;BME280;74937;44.534;18.684;2024-03-02T09:05:21;98294.22;;;21.43;34.00
84712;BME280;74937;44.534;18.684;2024-03-02T09:07:47;98292.84;;;21.54;33.95
84712;BME280;74937;44.534;18.684;2024-03-02T09:10:12;98292.25;;;21.65;33.57
84712;BME280;74937;44.534;18.684;2024-03-02T09:12:38;98299.88;;;21.68;32.99
84712;BME280;74937;44.534;18.684;2024-03-02T09:15:05;98294.22;;;21.43;32.61
84712;BME280;74937;44.534;18.684;2024-03-02T09:17:33;98287.00;;;21.44;32.82
84712;BME280;74937;44.534;18.684;2024-03-02T09:19:59;98289.06;;;21.35;32.38
84712;BME280;74937;44.534;18.684;2024-03-02T09:22:26;98285.13;;;21.31;32.89
84712;BME280;74937;44.534;18.684;2024-03-02T09:24:52;98288.50;;;21.46;32.18
84712;BME280;74937;44.534;18.684;2024-03-02T09:27:17;98297.38;;;21.53;31.54
84712;BME280;74937;44.534;18.684;2024-03-02T09:29:43;98289.69;;;21.44;31.52
84712;BME280;74937;44.534;18.684;2024-03-02T09:32:12;98293.66;;;21.54;31.20
84712;BME280;74937;44.534;18.684;2024-03-02T09:34:39;98283.53;;;21.56;31.28
84712;BME280;74937;44.534;18.684;2024-03-02T09:37:04;98289.13;;;21.61;30.85
84712;BME280;74937;44.534;18.684;2024-03-02T09:39:30;98281.31;;;21.73;31.11
84712;BME280;74937;44.534;18.684;2024-03-02T09:41:57;98285.66;;;21.94;30.86
84712;BME280;74937;44.534;18.684;2024-03-02T09:44:23;98283.41;;;21.91;30.06
84712;BME280;74937;44.534;18.684;2024-03-02T09:46:50;98276.78;;;21.93;29.65
84712;BME280;74937;44.534;18.684;2024-03-02T09:49:16;98276.41;;;22.16;29.22
84712;BME280;74937;44.534;18.684;2024-03-02T09:51:47;98281.38;;;22.19;29.04
84712;BME280;74937;44.534;18.684;2024-03-02T09:54:13;98284.88;;;22.13;27.89
84712;BME280;74937;44.534;18.684;2024-03-02T09:56:39;98278.88;;;21.85;28.28
84712;BME280;74937;44.534;18.684;2024-03-02T09:59:04;98290.56;;;21.71;28.63
84712;BME280;74937;44.534;18.684;2024-03-02T10:01:30;98285.22;;;21.84;28.51
84712;BME280;74937;44.534;18.684;2024-03-02T10:04:00;98280.09;;;21.89;27.21
84712;BME280;74937;44.534;18.684;2024-03-02T10:06:28;98286.91;;;21.78;28.10
84712;BME280;74937;44.534;18.684;2024-03-02T10:08:54;98291.03;;;21.87;28.13
84712;BME280;74937;44.534;18.684;2024-03-02T10:11:31;98285.91;;;22.12;28.45
84712;BME280;74937;44.534;18.684;2024-03-02T10:14:11;98279.06;;;21.97;27.22
84712;BME280;74937;44.534;18.684;2024-03-02T10:16:39;98285.44;;;21.69;27.13
84712;BME280;74937;44.534;18.684;2024-03-02T10:24:15;98268.53;;;21.82;27.07
84712;BME280;74937;44.534;18.684;2024-03-02T10:26:41;98276.63;;;22.15;27.22
84712;BME280;74937;44.534;18.684;2024-03-02T10:29:11;98270.16;;;22.49;26.67
84712;BME280;74937;44.534;18.684;2024-03-02T10:31:42;98265.22;;;22.46;26.19
84712;BME280;74937;44.534;18.684;2024-03-02T10:34:09;98264.03;;;22.15;26.12
84712;BME280;74937;44.534;18.684;2024-03-02T10:36:36;98259.06;;;21.79;27.08
84712;BME280;74937;44.534;18.684;2024-03-02T10:39:04;98259.44;;;21.83;27.98
84712;BME280;74937;44.534;18.684;2024-03-02T10:41:35;98267.31;;;21.91;27.13
84712;BME280;74937;44.534;18.684;2024-03-02T10:44:05;98264.56;;;21.64;27.66
84712;BME280;74937;44.534;18.684;2024-03-02T10:46:33;98266.47;;;21.90;28.16
84712;BME280;74937;44.534;18.684;2024-03-02T10:49:00;98257.81;;;22.08;27.46
84712;BME280;74937;44.534;18.684;2024-03-02T10:51:28;98255.16;;;22.21;26.48
84712;BME280;74937;44.534;18.684;2024-03-02T10:54:00;98260.69;;;22.07;26.25
84712;BME280;74937;44.534;18.684;2024-03-02T11:01:42;98251.16;;;21.51;26.61
84712;BME280;74937;44.534;18.684;2024-03-02T11:04:08;98245.19;;;21.49;26.71
84712;BME280;74937;44.534;18.684;2024-03-02T11:06:35;98244.38;;;21.55;27.18
84712;BME280;74937;44.534;18.684;2024-03-02T11:09:07;98243.31;;;21.50;26.80
84712;BME280;74937;44.534;18.684;2024-03-02T11:11:40;98238.56;;;21.38;27.63
84712;BME280;74937;44.534;18.684;2024-03-02T11:14:13;98228.97;;;21.09;27.81
84712;BME280;74937;44.534;18.684;2024-03-02T11:16:39;98231.84;;;21.01;27.79
84712;BME280;74937;44.534;18.684;2024-03-02T11:19:11;98226.25;;;20.96;27.74
84712;BME280;74937;44.534;18.684;2024-03-02T11:21:38;98215.75;;;20.53;28.43
84712;BME280;74937;44.534;18.684;2024-03-02T11:26:46;98217.03;;;20.57;28.60
84712;BME280;74937;44.534;18.684;2024-03-02T11:32:13;98217.50;;;20.40;29.05
84712;BME280;74937;44.534;18.684;2024-03-02T11:34:41;98219.34;;;20.04;29.49
84712;BME280;74937;44.534;18.684;2024-03-02T11:37:15;98214.91;;;20.18;28.45
84712;BME280;74937;44.534;18.684;2024-03-02T11:39:45;98219.53;;;20.03;28.34
84712;BME280;74937;44.534;18.684;2024-03-02T11:42:11;98212.91;;;19.99;29.24
84712;BME280;74937;44.534;18.684;2024-03-02T11:44:41;98220.38;;;19.82;29.13
84712;BME280;74937;44.534;18.684;2024-03-02T11:47:10;98217.84;;;19.95;29.33
84712;BME280;74937;44.534;18.684;2024-03-02T11:49:40;98211.22;;;19.91;29.42
84712;BME280;74937;44.534;18.684;2024-03-02T11:52:10;98207.25;;;20.09;28.72
84712;BME280;74937;44.534;18.684;2024-03-02T11:54:38;98208.47;;;20.13;29.34
84712;BME280;74937;44.534;18.684;2024-03-02T11:57:21;98203.59;;;20.16;28.49
84712;BME280;74937;44.534;18.684;2024-03-02T11:59:49;98200.63;;;20.04;28.90
84712;BME280;74937;44.534;18.684;2024-03-02T12:02:19;98203.41;;;19.90;28.70
84712;BME280;74937;44.534;18.684;2024-03-02T12:04:46;98207.81;;;19.76;29.39
84712;BME280;74937;44.534;18.684;2024-03-02T12:07:23;98191.66;;;19.63;29.27
84712;BME280;74937;44.534;18.684;2024-03-02T12:09:50;98197.63;;;19.65;29.50
84712;BME280;74937;44.534;18.684;2024-03-02T12:12:24;98202.38;;;19.48;29.49
84712;BME280;74937;44.534;18.684;2024-03-02T12:14:53;98200.34;;;19.29;29.55
84712;BME280;74937;44.534;18.684;2024-03-02T12:17:21;98193.09;;;19.22;30.38
84712;BME280;74937;44.534;18.684;2024-03-02T12:19:47;98200.03;;;19.38;30.80
84712;BME280;74937;44.534;18.684;2024-03-02T12:22:13;98194.09;;;19.58;29.97
84712;BME280;74937;44.534;18.684;2024-03-02T12:24:38;98199.97;;;19.74;30.40
84712;BME280;74937;44.534;18.684;2024-03-02T12:27:07;98197.75;;;19.78;29.47
84712;BME280;74937;44.534;18.684;2024-03-02T12:29:34;98197.13;;;19.76;29.69
84712;BME280;74937;44.534;18.684;2024-03-02T12:31:59;98189.22;;;19.68;29.40
84712;BME280;74937;44.534;18.684;2024-03-02T12:34:27;98180.97;;;19.63;30.16
84712;BME280;74937;44.534;18.684;2024-03-02T12:36:53;98180.53;;;19.59;29.81
84712;BME280;74937;44.534;18.684;2024-03-02T12:39:19;98182.84;;;19.69;29.31
84712;BME280;74937;44.534;18.684;2024-03-02T12:41:46;98179.81;;;19.72;29.53
84712;BME280;74937;44.534;18.684;2024-03-02T12:44:12;98178.06;;;19.86;29.11
84712;BME280;74937;44.534;18.684;2024-03-02T12:46:38;98170.97;;;19.99;29.19
84712;BME280;74937;44.534;18.684;2024-03-02T12:49:11;98173.50;;;20.14;29.45
84712;BME280;74937;44.534;18.684;2024-03-02T12:51:38;98177.13;;;20.28;29.75
84712;BME280;74937;44.534;18.684;2024-03-02T12:54:09;98181.97;;;20.18;28.78
84712;BME280;74937;44.534;18.684;2024-03-02T12:56:40;98172.31;;;20.17;28.39
84712;BME280;74937;44.534;18.684;2024-03-02T12:59:17;98174.75;;;20.12;28.70
84712;BME280;74937;44.534;18.684;2024-03-02T13:02:16;98172.47;;;20.09;29.11
84712;BME280;74937;44.534;18.684;2024-03-02T13:04:42;98174.25;;;20.01;28.77
84712;BME280;74937;44.534;18.684;2024-03-02T13:07:07;98172.50;;;19.87;28.53